createdAt,value
2019-05-03T00:00:16.083Z,68.08
2019-05-03T00:03:01.758Z,68.15
2019-05-03T00:05:37.580Z,68.22
2019-05-03T00:08:08.388Z,68.54
2019-05-03T00:10:38.634Z,68.82
2019-05-03T00:13:08.296Z,69.18
2019-05-03T00:15:52.322Z,69.52
2019-05-03T00:18:22.116Z,69.68
2019-05-03T00:20:52.682Z,69.82
2019-05-03T00:23:22.814Z,70.16
2019-05-03T00:25:52.394Z,69.94
2019-05-03T00:28:21.785Z,70.17
2019-05-03T00:30:51.845Z,70.17
2019-05-03T00:33:22.477Z,70.15
2019-05-03T00:36:04.704Z,70.16
2019-05-03T00:38:33.729Z,69.94
2019-05-03T00:41:02.642Z,70.00
2019-05-03T00:43:31.855Z,69.87
2019-05-03T00:46:01.988Z,70.17
2019-05-03T00:48:32.665Z,70.11
2019-05-03T00:51:02.420Z,70.52
2019-05-03T00:53:31.831Z,70.58
2019-05-03T00:56:01.789Z,70.42
2019-05-03T00:58:31.786Z,70.19
2019-05-03T01:01:02.688Z,69.64
2019-05-03T01:03:32.584Z,68.87
2019-05-03T01:06:02.327Z,69.02
2019-05-03T01:08:32.667Z,69.04
2019-05-03T01:11:02.098Z,68.31
2019-05-03T01:13:32.095Z,67.16
2019-05-03T01:16:08.622Z,67.15
2019-05-03T01:18:37.597Z,65.56
2019-05-03T01:21:06.985Z,63.85
2019-05-03T01:23:35.861Z,62.58
2019-05-03T01:26:05.180Z,62.00
2019-05-03T01:28:34.142Z,61.76
2019-05-03T01:31:02.991Z,61.15
2019-05-03T01:33:32.306Z,60.20
2019-05-03T01:36:02.759Z,60.49
2019-05-03T01:38:32.120Z,60.71
2019-05-03T01:41:01.781Z,60.30
2019-05-03T01:43:31.703Z,60.40
2019-05-03T01:46:02.735Z,60.78
2019-05-03T01:49:02.712Z,60.17
2019-05-03T01:51:52.537Z,59.90
2019-05-03T01:54:22.859Z,59.62
2019-05-03T01:56:58.670Z,58.82
2019-05-03T01:59:22.739Z,58.87
2019-05-03T02:02:02.282Z,58.71
2019-05-03T02:04:41.742Z,58.60
2019-05-03T02:07:11.730Z,58.26
2019-05-03T02:09:41.716Z,58.51
2019-05-03T02:12:12.630Z,58.69
2019-05-03T02:14:42.252Z,59.77
2019-05-03T02:17:12.458Z,60.34
2019-05-03T02:19:42.156Z,60.76
2019-05-03T02:22:12.095Z,60.78
2019-05-03T02:24:42.220Z,60.79
2019-05-03T02:27:12.725Z,61.04
2019-05-03T02:29:41.893Z,61.14
2019-05-03T02:32:13.188Z,60.71
2019-05-03T02:34:43.848Z,61.36
2019-05-03T02:37:13.883Z,60.34
2019-05-03T02:39:43.058Z,60.02
2019-05-03T02:42:12.124Z,60.12
2019-05-03T02:44:41.233Z,61.09
2019-05-03T02:47:27.841Z,61.73
2019-05-03T02:50:00.713Z,62.36
2019-05-03T02:52:36.895Z,62.76
2019-05-03T02:55:07.742Z,63.24
2019-05-03T02:57:36.703Z,63.60
2019-05-03T03:00:08.319Z,64.00
2019-05-03T03:02:38.384Z,64.34
2019-05-03T03:05:07.481Z,64.00
2019-05-03T03:07:37.661Z,64.54
2019-05-03T03:10:08.197Z,64.91
2019-05-03T03:12:39.525Z,65.58
2019-05-03T03:15:08.393Z,66.19
2019-05-03T03:17:38.827Z,66.72
2019-05-03T03:20:08.781Z,67.33
2019-05-03T03:22:45.299Z,67.72
2019-05-03T03:25:35.970Z,68.33
2019-05-03T03:28:05.525Z,68.51
2019-05-03T03:31:28.292Z,68.88
2019-05-03T03:33:59.546Z,69.32
2019-05-03T03:36:44.867Z,69.83
2019-05-03T03:39:00.675Z,69.76
2019-05-03T03:41:31.014Z,70.28
2019-05-03T03:44:15.328Z,70.81
2019-05-03T03:46:45.464Z,71.12
2019-05-03T03:49:16.222Z,71.62
2019-05-03T03:51:46.440Z,71.97
2019-05-03T03:54:18.245Z,72.12
2019-05-03T03:57:03.005Z,72.53
2019-05-03T03:59:26.486Z,72.75
2019-05-03T04:01:56.998Z,72.78
2019-05-03T04:04:26.570Z,72.94
2019-05-03T04:07:00.514Z,72.79
2019-05-03T04:09:27.352Z,72.76
2019-05-03T04:11:57.144Z,72.51
2019-05-03T04:14:31.787Z,72.56
2019-05-03T04:17:26.053Z,72.50
2019-05-03T04:19:55.997Z,72.81
2019-05-03T04:22:25.632Z,72.85
2019-05-03T04:24:55.558Z,73.24
2019-05-03T04:27:28.025Z,73.14
2019-05-03T04:29:56.839Z,73.24
2019-05-03T04:32:28.984Z,73.03
2019-05-03T04:34:56.264Z,73.09
2019-05-03T04:37:26.683Z,72.64
2019-05-03T04:39:56.214Z,72.58
2019-05-03T04:42:25.684Z,72.95
2019-05-03T04:44:56.270Z,72.96
2019-05-03T04:47:26.431Z,72.87
2019-05-03T04:49:55.711Z,72.66
2019-05-03T04:52:25.983Z,72.56
2019-05-03T04:54:57.192Z,72.52
2019-05-03T04:57:39.912Z,72.79
2019-05-03T04:59:57.057Z,72.96
2019-05-03T05:02:26.608Z,72.92
2019-05-03T05:04:55.898Z,72.46
2019-05-03T05:07:26.171Z,72.21
2019-05-03T05:09:56.372Z,72.05
2019-05-03T05:12:25.586Z,71.98
2019-05-03T05:14:56.403Z,71.72
2019-05-03T05:17:35.505Z,71.36
2019-05-03T05:20:35.738Z,71.07
2019-05-03T05:23:04.900Z,70.80
2019-05-03T05:25:38.044Z,70.54
2019-05-03T05:28:15.110Z,70.37
2019-05-03T05:30:44.420Z,70.45
2019-05-03T05:33:25.042Z,70.45
2019-05-03T05:35:54.692Z,70.25
2019-05-03T05:38:25.592Z,70.16
2019-05-03T05:40:55.494Z,69.19
2019-05-03T05:43:25.542Z,69.08
2019-05-03T05:45:55.375Z,68.12
2019-05-03T05:48:30.935Z,67.67
2019-05-03T05:50:59.830Z,67.00
2019-05-03T05:53:28.760Z,66.37
2019-05-03T05:56:22.513Z,66.35
2019-05-03T05:59:02.028Z,66.33
2019-05-03T06:01:35.332Z,66.37
2019-05-03T06:04:05.386Z,65.87
2019-05-03T06:06:59.577Z,66.27
2019-05-03T06:09:44.834Z,64.48
2019-05-03T06:12:38.925Z,65.05
2019-05-03T06:15:15.055Z,64.79
2019-05-03T06:17:55.481Z,65.09
2019-05-03T06:20:37.248Z,64.34
2019-05-03T06:23:10.741Z,64.62
2019-05-03T06:25:42.283Z,63.45
2019-05-03T06:28:20.788Z,63.65
2019-05-03T06:31:06.130Z,63.09
2019-05-03T06:33:35.242Z,62.77
2019-05-03T06:36:04.978Z,62.34
2019-05-03T06:38:34.440Z,62.09
2019-05-03T06:41:04.703Z,61.91
2019-05-03T06:43:34.845Z,61.96
2019-05-03T06:46:05.366Z,62.16
2019-05-03T06:48:35.232Z,61.50
2019-05-03T06:51:08.807Z,61.51
2019-05-03T06:53:34.870Z,61.31
2019-05-03T06:56:04.567Z,61.20
2019-05-03T06:58:36.369Z,61.37
2019-05-03T07:01:35.651Z,60.75
2019-05-03T07:04:09.975Z,60.08
2019-05-03T07:06:46.177Z,59.55
2019-05-03T07:09:19.883Z,59.19
2019-05-03T07:11:48.855Z,59.17
2019-05-03T07:14:17.688Z,58.48
2019-05-03T07:16:46.613Z,58.78
2019-05-03T07:19:15.452Z,58.27
2019-05-03T07:21:44.728Z,57.97
2019-05-03T07:24:14.631Z,57.83
2019-05-03T07:26:44.803Z,55.97
2019-05-03T07:29:15.209Z,54.86
2019-05-03T07:31:44.734Z,53.65
2019-05-03T07:34:15.612Z,53.44
2019-05-03T07:36:44.834Z,53.60
2019-05-03T07:39:14.578Z,48.98
2019-05-03T07:41:44.638Z,45.75
2019-05-03T07:44:15.194Z,47.33
2019-05-03T07:46:45.202Z,49.18
2019-05-03T07:49:15.372Z,49.94
2019-05-03T07:51:44.866Z,51.01
2019-05-03T07:54:15.707Z,51.93
2019-05-03T07:56:50.298Z,51.87
2019-05-03T07:59:19.101Z,50.94
2019-05-03T08:01:50.783Z,50.36
2019-05-03T08:04:19.571Z,49.92
2019-05-03T08:06:48.649Z,49.49
2019-05-03T08:09:17.636Z,49.02
2019-05-03T08:11:46.773Z,48.15
2019-05-03T08:14:18.026Z,46.44
2019-05-03T08:16:46.568Z,44.98
2019-05-03T08:19:15.517Z,43.56
2019-05-03T08:21:45.718Z,43.95
2019-05-03T08:24:15.019Z,44.37
2019-05-03T08:26:45.294Z,44.52
2019-05-03T08:29:18.611Z,44.13
2019-05-03T08:32:12.921Z,44.85
2019-05-03T08:35:06.835Z,44.26
2019-05-03T08:37:48.252Z,41.80
2019-05-03T08:40:17.933Z,41.99
2019-05-03T08:42:46.809Z,41.64
2019-05-03T08:45:15.794Z,41.81
2019-05-03T08:47:45.146Z,41.46
2019-05-03T08:50:20.707Z,41.90
2019-05-03T08:52:45.330Z,41.86
2019-05-03T08:55:15.851Z,42.91
2019-05-03T08:57:45.052Z,43.33
2019-05-03T09:00:16.678Z,43.31
2019-05-03T09:02:45.880Z,42.91
2019-05-03T09:05:18.602Z,42.63
2019-05-03T09:07:46.597Z,42.11
2019-05-03T09:10:27.258Z,42.41
2019-05-03T09:13:30.762Z,43.09
2019-05-03T09:15:59.685Z,42.32
2019-05-03T09:18:28.608Z,42.41
2019-05-03T09:20:57.620Z,41.96
2019-05-03T09:23:26.706Z,44.73
2019-05-03T09:25:55.588Z,43.57
2019-05-03T09:28:26.506Z,44.62
2019-05-03T09:30:55.323Z,44.09
2019-05-03T09:33:24.957Z,43.36
2019-05-03T09:35:54.959Z,44.02
2019-05-03T09:38:25.647Z,42.82
2019-05-03T09:40:54.772Z,42.57
2019-05-03T09:43:25.071Z,42.42
2019-05-03T09:45:54.769Z,41.23
2019-05-03T09:48:25.530Z,40.75
2019-05-03T09:50:55.603Z,40.62
2019-05-03T09:53:26.720Z,39.67
2019-05-03T09:55:55.722Z,39.13
2019-05-03T09:58:26.366Z,38.57
2019-05-03T10:00:55.648Z,38.06
2019-05-03T10:03:24.848Z,38.72
2019-05-03T10:05:55.425Z,39.41
2019-05-03T10:08:25.452Z,40.62
2019-05-03T10:11:15.136Z,39.65
2019-05-03T10:13:47.383Z,39.17
2019-05-03T10:16:15.620Z,38.49
2019-05-03T10:18:46.009Z,36.95
2019-05-03T10:21:15.236Z,37.99
2019-05-03T10:23:45.168Z,39.22
2019-05-03T10:26:15.083Z,39.16
2019-05-03T10:28:44.302Z,38.47
2019-05-03T10:31:13.281Z,38.35
2019-05-03T10:33:46.871Z,38.81
2019-05-03T10:36:15.877Z,39.36
2019-05-03T10:38:46.022Z,38.85
2019-05-03T10:41:15.194Z,39.27
2019-05-03T10:43:45.096Z,39.89
2019-05-03T10:46:15.986Z,39.98
2019-05-03T10:48:45.426Z,38.83
2019-05-03T10:51:15.681Z,38.52
2019-05-03T10:53:47.679Z,37.66
2019-05-03T10:56:24.499Z,37.28
2019-05-03T10:58:58.901Z,37.41
2019-05-03T11:01:35.999Z,38.39
2019-05-03T11:04:05.422Z,38.87
2019-05-03T11:06:35.513Z,38.78
2019-05-03T11:09:05.816Z,40.03
2019-05-03T11:11:35.326Z,40.46
2019-05-03T11:14:05.410Z,40.56
2019-05-03T11:16:35.117Z,40.37
2019-05-03T11:19:05.507Z,40.05
2019-05-03T11:21:34.938Z,40.54
2019-05-03T11:24:03.959Z,40.36
2019-05-03T11:26:34.995Z,41.23
2019-05-03T11:29:05.196Z,40.71
2019-05-03T11:32:00.292Z,39.17
2019-05-03T11:34:35.495Z,39.53
2019-05-03T11:37:39.007Z,38.71
2019-05-03T11:40:09.129Z,39.59
2019-05-03T11:42:37.940Z,39.60
2019-05-03T11:45:06.940Z,39.16
2019-05-03T11:47:35.780Z,38.27
2019-05-03T11:50:05.247Z,38.23
2019-05-03T11:52:35.574Z,38.19
2019-05-03T11:55:11.379Z,38.82
2019-05-03T11:57:35.960Z,38.04
2019-05-03T12:00:06.184Z,37.16
2019-05-03T12:02:51.191Z,38.37
2019-05-03T12:05:25.314Z,37.65
2019-05-03T12:07:54.795Z,38.99
2019-05-03T12:10:36.548Z,37.22
2019-05-03T12:13:00.129Z,37.54
2019-05-03T12:15:29.067Z,37.26
2019-05-03T12:18:00.997Z,37.91
2019-05-03T12:20:31.758Z,39.82
2019-05-03T12:23:02.057Z,38.49
2019-05-03T12:25:32.159Z,39.19
2019-05-03T12:28:01.342Z,39.82
2019-05-03T12:30:30.323Z,38.31
2019-05-03T12:32:59.274Z,38.38
2019-05-03T12:35:28.104Z,37.84
2019-05-03T12:37:57.093Z,38.81
2019-05-03T12:40:26.076Z,37.85
2019-05-03T12:42:55.591Z,38.19
2019-05-03T12:45:24.827Z,37.65
2019-05-03T12:47:55.687Z,36.48
2019-05-03T12:50:25.184Z,36.22
2019-05-03T12:52:55.474Z,36.01
2019-05-03T12:55:24.918Z,36.27
2019-05-03T12:57:55.616Z,35.96
2019-05-03T13:00:48.675Z,36.47
2019-05-03T13:03:24.653Z,36.96
2019-05-03T13:05:55.619Z,35.92
2019-05-03T13:08:35.318Z,36.09
2019-05-03T13:11:05.303Z,34.64
2019-05-03T13:13:35.896Z,34.37
2019-05-03T13:16:05.444Z,34.16
2019-05-03T13:18:35.064Z,34.65
2019-05-03T13:21:05.834Z,34.89
2019-05-03T13:23:35.843Z,34.30
2019-05-03T13:26:05.812Z,34.77
2019-05-03T13:28:35.293Z,33.73
2019-05-03T13:31:05.821Z,33.32
2019-05-03T13:33:35.190Z,32.96
2019-05-03T13:36:04.769Z,33.03
2019-05-03T13:38:34.936Z,33.48
2019-05-03T13:41:06.236Z,33.69
2019-05-03T13:43:34.943Z,32.58
2019-05-03T13:46:05.167Z,32.71
2019-05-03T13:48:42.782Z,31.68
2019-05-03T13:51:05.426Z,32.01
2019-05-03T13:53:34.932Z,30.56
2019-05-03T13:56:04.789Z,30.67
2019-05-03T13:58:35.874Z,30.24
2019-05-03T14:01:05.516Z,30.80
2019-05-03T14:03:35.193Z,30.57
2019-05-03T14:06:08.388Z,30.42
2019-05-03T14:08:35.280Z,30.12
2019-05-03T14:11:05.026Z,31.11
2019-05-03T14:13:35.352Z,30.85
2019-05-03T14:16:05.522Z,32.03
2019-05-03T14:18:35.305Z,31.75
2019-05-03T14:21:11.397Z,30.58
2019-05-03T14:23:58.098Z,29.89
2019-05-03T14:26:27.025Z,29.37
2019-05-03T14:28:55.865Z,30.00
2019-05-03T14:31:25.307Z,28.87
2019-05-03T14:33:55.835Z,28.24
2019-05-03T14:36:25.193Z,27.62
2019-05-03T14:38:54.845Z,27.21
2019-05-03T14:41:25.460Z,28.17
2019-05-03T14:43:55.664Z,27.69
2019-05-03T14:46:32.612Z,27.10
2019-05-03T14:48:55.570Z,26.79
2019-05-03T14:51:25.338Z,26.54
2019-05-03T14:53:56.959Z,27.24
2019-05-03T14:56:45.571Z,28.10
2019-05-03T14:59:35.946Z,28.32
2019-05-03T15:02:40.188Z,28.57
2019-05-03T15:04:57.725Z,28.07
2019-05-03T15:07:26.645Z,29.31
2019-05-03T15:09:55.582Z,28.28
2019-05-03T15:12:25.213Z,27.78
2019-05-03T15:14:54.690Z,27.15
2019-05-03T15:17:24.655Z,27.24
2019-05-03T15:19:54.725Z,27.88
2019-05-03T15:22:25.357Z,27.34
2019-05-03T15:24:54.626Z,26.74
2019-05-03T15:27:24.848Z,27.30
2019-05-03T15:29:55.563Z,27.37
2019-05-03T15:32:24.729Z,26.89
2019-05-03T15:34:55.345Z,27.21
2019-05-03T15:37:25.462Z,27.20
2019-05-03T15:39:54.769Z,29.21
2019-05-03T15:42:24.546Z,27.90
2019-05-03T15:45:11.221Z,26.83
2019-05-03T15:47:45.488Z,27.53
2019-05-03T15:50:15.508Z,26.69
2019-05-03T15:52:44.579Z,26.91
2019-05-03T15:55:15.168Z,27.12
2019-05-03T15:57:44.686Z,27.95
2019-05-03T16:00:15.573Z,26.75
2019-05-03T16:02:44.575Z,26.93
2019-05-03T16:05:15.454Z,27.18
2019-05-03T16:07:44.641Z,27.16
2019-05-03T16:10:15.391Z,27.31
2019-05-03T16:12:44.937Z,27.31
2019-05-03T16:15:14.066Z,26.35
2019-05-03T16:17:44.849Z,26.22
2019-05-03T16:20:14.416Z,30.02
2019-05-03T16:22:46.391Z,28.69
2019-05-03T16:25:14.331Z,30.54
2019-05-03T16:27:50.760Z,30.93
2019-05-03T16:30:39.003Z,31.23
2019-05-03T16:33:08.058Z,31.21
2019-05-03T16:35:37.826Z,31.46
2019-05-03T16:38:07.102Z,31.61
2019-05-03T16:40:36.092Z,30.76
2019-05-03T16:43:05.123Z,31.33
2019-05-03T16:45:35.048Z,29.38
2019-05-03T16:48:04.527Z,29.66
2019-05-03T16:50:34.537Z,29.94
2019-05-03T16:53:05.454Z,29.94
2019-05-03T16:55:35.192Z,31.81
2019-05-03T16:58:04.312Z,32.85
2019-05-03T17:00:35.189Z,33.45
2019-05-03T17:03:05.669Z,33.67
2019-05-03T17:05:52.334Z,34.02
2019-05-03T17:08:28.251Z,34.45
2019-05-03T17:10:58.245Z,34.83
2019-05-03T17:13:27.141Z,35.13
2019-05-03T17:15:56.033Z,35.74
2019-05-03T17:18:24.957Z,36.43
2019-05-03T17:20:54.763Z,36.71
2019-05-03T17:23:24.572Z,37.66
2019-05-03T17:25:53.803Z,38.07
2019-05-03T17:28:24.722Z,38.04
2019-05-03T17:30:55.260Z,38.25
2019-05-03T17:33:25.325Z,38.66
2019-05-03T17:35:54.522Z,38.56
2019-05-03T17:38:23.409Z,38.24
2019-05-03T17:41:14.879Z,38.63
2019-05-03T17:43:50.538Z,39.57
2019-05-03T17:46:19.385Z,38.19
2019-05-03T17:48:48.747Z,38.39
2019-05-03T17:51:35.582Z,38.48
2019-05-03T17:54:29.794Z,38.21
2019-05-03T17:57:01.911Z,38.62
2019-05-03T17:59:35.578Z,38.80
2019-05-03T18:02:23.737Z,39.01
2019-05-03T18:05:15.226Z,38.77
2019-05-03T18:07:57.648Z,39.41
2019-05-03T18:10:27.447Z,40.16
2019-05-03T18:12:56.442Z,40.31
2019-05-03T18:15:25.423Z,40.55
2019-05-03T18:17:54.869Z,40.76
2019-05-03T18:20:25.547Z,40.47
2019-05-03T18:22:54.836Z,40.92
2019-05-03T18:25:24.864Z,40.97
2019-05-03T18:27:55.215Z,41.33
2019-05-03T18:30:24.413Z,41.39
2019-05-03T18:32:54.426Z,41.62
2019-05-03T18:35:25.561Z,41.83
2019-05-03T18:37:58.638Z,42.40
2019-05-03T18:40:28.422Z,42.34
2019-05-03T18:43:04.550Z,42.70
2019-05-03T18:46:00.605Z,43.00
2019-05-03T18:48:29.587Z,42.99
2019-05-03T18:50:58.479Z,43.26
2019-05-03T18:53:27.368Z,43.61
2019-05-03T18:55:56.405Z,43.92
2019-05-03T18:58:25.346Z,44.21
2019-05-03T19:00:54.895Z,44.35
2019-05-03T19:03:25.228Z,44.43
2019-05-03T19:05:57.705Z,44.61
2019-05-03T19:08:45.610Z,44.97
2019-05-03T19:11:24.526Z,44.85
2019-05-03T19:13:56.646Z,45.00
2019-05-03T19:16:39.466Z,45.21
2019-05-03T19:19:09.079Z,45.34
2019-05-03T19:21:38.033Z,45.78
2019-05-03T19:24:07.272Z,46.28
2019-05-03T19:26:36.224Z,46.03
2019-05-03T19:29:05.185Z,46.38
2019-05-03T19:31:35.602Z,46.51
2019-05-03T19:34:06.051Z,45.42
2019-05-03T19:36:37.205Z,44.83
2019-05-03T19:39:06.749Z,44.99
2019-05-03T19:41:35.790Z,45.37
2019-05-03T19:44:04.799Z,45.74
2019-05-03T19:46:35.093Z,45.26
2019-05-03T19:49:05.074Z,45.19
2019-05-03T19:51:34.352Z,45.83
2019-05-03T19:54:05.406Z,46.11
2019-05-03T19:56:34.567Z,46.59
2019-05-03T19:59:07.601Z,46.64
2019-05-03T20:01:46.066Z,46.81
2019-05-03T20:04:33.959Z,46.68
2019-05-03T20:07:17.026Z,47.63
2019-05-03T20:09:46.205Z,47.63
2019-05-03T20:12:16.107Z,48.08
2019-05-03T20:14:45.219Z,48.34
2019-05-03T20:17:14.794Z,48.68
2019-05-03T20:19:45.163Z,48.89
2019-05-03T20:22:15.146Z,49.16
2019-05-03T20:24:44.768Z,49.20
2019-05-03T20:27:15.829Z,49.27
2019-05-03T20:29:46.300Z,49.16
2019-05-03T20:32:15.975Z,49.64
2019-05-03T20:34:46.699Z,49.55
2019-05-03T20:37:15.767Z,50.13
2019-05-03T20:39:45.292Z,50.70
2019-05-03T20:42:35.581Z,50.84
2019-05-03T20:45:05.738Z,50.90
2019-05-03T20:47:42.031Z,51.15
2019-05-03T20:50:18.293Z,51.51
2019-05-03T20:52:47.323Z,51.37
2019-05-03T20:55:16.467Z,51.05
2019-05-03T20:57:45.390Z,51.31
2019-05-03T21:00:18.204Z,51.90
2019-05-03T21:02:53.543Z,52.05
2019-05-03T21:05:26.874Z,52.46
2019-05-03T21:07:48.882Z,52.26
2019-05-03T21:10:18.009Z,52.88
2019-05-03T21:12:47.043Z,53.27
2019-05-03T21:15:27.702Z,52.97
2019-05-03T21:18:15.230Z,53.21
2019-05-03T21:21:02.236Z,53.29
2019-05-03T21:23:34.485Z,53.21
2019-05-03T21:26:13.512Z,53.03
2019-05-03T21:28:40.186Z,53.46
2019-05-03T21:31:09.267Z,53.41
2019-05-03T21:33:38.301Z,53.48
2019-05-03T21:36:07.254Z,53.71
2019-05-03T21:38:36.115Z,53.67
2019-05-03T21:41:05.429Z,53.45
2019-05-03T21:43:34.983Z,54.10
2019-05-03T21:46:11.939Z,54.36
2019-05-03T21:48:57.994Z,54.42
2019-05-03T21:51:26.917Z,54.24
2019-05-03T21:53:55.691Z,54.57
2019-05-03T21:56:25.086Z,54.75
2019-05-03T21:58:55.289Z,54.60
2019-05-03T22:01:25.928Z,54.86
2019-05-03T22:03:54.984Z,55.19
2019-05-03T22:06:24.629Z,55.41
2019-05-03T22:08:55.422Z,55.80
2019-05-03T22:11:25.134Z,56.04
2019-05-03T22:13:57.170Z,56.00
2019-05-03T22:16:44.892Z,55.52
2019-05-03T22:19:16.311Z,55.24
2019-05-03T22:21:55.308Z,55.24
2019-05-03T22:24:55.700Z,55.24
2019-05-03T22:27:24.786Z,55.56
2019-05-03T22:29:54.588Z,55.62
2019-05-03T22:32:24.469Z,55.82
2019-05-03T22:34:54.337Z,56.39
2019-05-03T22:37:25.244Z,56.49
2019-05-03T22:39:54.965Z,56.36
2019-05-03T22:42:25.307Z,56.16
2019-05-03T22:44:55.356Z,56.34
2019-05-03T22:47:25.344Z,56.23
2019-05-03T22:49:54.851Z,55.70
2019-05-03T22:52:25.707Z,55.53
2019-05-03T22:54:55.491Z,55.03
2019-05-03T22:57:24.907Z,56.37
2019-05-03T22:59:53.829Z,56.81
2019-05-03T23:02:24.900Z,56.95
2019-05-03T23:04:55.421Z,57.13
2019-05-03T23:07:24.965Z,57.26
2019-05-03T23:09:54.180Z,57.33
2019-05-03T23:12:23.079Z,57.45
2019-05-03T23:14:52.120Z,57.69
2019-05-03T23:17:21.239Z,57.94
2019-05-03T23:19:56.536Z,57.99
2019-05-03T23:22:28.344Z,58.10
2019-05-03T23:24:57.362Z,58.30
2019-05-03T23:27:26.617Z,58.57
2019-05-03T23:29:56.002Z,58.59
2019-05-03T23:32:24.933Z,58.43
2019-05-03T23:34:54.407Z,58.88
2019-05-03T23:37:23.550Z,59.40
2019-05-03T23:39:52.496Z,59.86
2019-05-03T23:42:21.275Z,59.51
2019-05-03T23:44:50.263Z,59.19
2019-05-03T23:47:34.491Z,59.17
2019-05-03T23:50:04.809Z,59.87
2019-05-03T23:52:38.314Z,60.00
2019-05-03T23:55:19.144Z,60.01
2019-05-03T23:57:48.216Z,59.80
